createdAt,value
2019-02-21T00:00:37.873Z,10.63
2019-02-21T00:03:08.958Z,9.75
2019-02-21T00:05:40.556Z,10.08
2019-02-21T00:08:10.804Z,10.07
2019-02-21T00:10:41.418Z,11.25
2019-02-21T00:13:11.670Z,10.13
2019-02-21T00:15:41.903Z,11.45
2019-02-21T00:18:12.156Z,10.35
2019-02-21T00:20:42.402Z,10.30
2019-02-21T00:23:13.025Z,11.50
2019-02-21T00:25:43.257Z,9.85
2019-02-21T00:28:13.499Z,9.83
2019-02-21T00:30:43.732Z,11.27
2019-02-21T00:33:13.976Z,9.18
2019-02-21T00:35:45.377Z,9.83
2019-02-21T00:38:15.615Z,8.30
2019-02-21T00:40:45.846Z,9.55
2019-02-21T00:43:16.095Z,8.83
2019-02-21T00:45:46.331Z,10.93
2019-02-21T00:48:16.569Z,8.85
2019-02-21T00:50:46.812Z,10.58
2019-02-21T00:53:17.075Z,8.70
2019-02-21T00:55:47.309Z,7.28
2019-02-21T00:58:17.555Z,7.90
2019-02-21T01:00:47.810Z,10.35
2019-02-21T01:03:18.045Z,9.68
2019-02-21T01:05:48.292Z,10.40
2019-02-21T01:08:18.535Z,8.75
2019-02-21T01:10:48.770Z,8.75
2019-02-21T01:13:19.010Z,9.65
2019-02-21T01:15:49.251Z,8.20
2019-02-21T01:18:19.491Z,8.30
2019-02-21T01:20:49.726Z,7.17
2019-02-21T01:23:19.964Z,7.30
2019-02-21T01:25:50.198Z,6.60
2019-02-21T01:28:20.440Z,8.48
2019-02-21T01:30:57.098Z,6.37
2019-02-21T01:33:22.614Z,7.17
2019-02-21T01:35:52.856Z,8.15
2019-02-21T01:38:23.161Z,6.97
2019-02-21T01:40:53.402Z,7.30
2019-02-21T01:43:23.636Z,7.00
2019-02-21T01:45:54.811Z,6.92
2019-02-21T01:48:25.037Z,7.22
2019-02-21T01:50:55.273Z,7.87
2019-02-21T01:53:25.509Z,6.42
2019-02-21T01:55:55.774Z,6.17
2019-02-21T01:58:26.009Z,6.40
2019-02-21T02:00:56.264Z,8.35
2019-02-21T02:03:26.866Z,6.50
2019-02-21T02:05:57.119Z,6.85
2019-02-21T02:08:27.355Z,6.65
2019-02-21T02:10:57.608Z,7.07
2019-02-21T02:13:27.856Z,7.45
2019-02-21T02:15:58.112Z,6.17
2019-02-21T02:18:28.351Z,6.75
2019-02-21T02:20:58.600Z,7.28
2019-02-21T02:23:28.839Z,7.23
2019-02-21T02:25:59.094Z,8.00
2019-02-21T02:28:29.328Z,8.30
2019-02-21T02:30:59.578Z,7.03
2019-02-21T02:33:29.814Z,7.03
2019-02-21T02:36:00.070Z,6.20
2019-02-21T02:38:30.309Z,6.80
2019-02-21T02:41:00.570Z,7.13
2019-02-21T02:43:30.809Z,6.90
2019-02-21T02:46:01.063Z,6.93
2019-02-21T02:48:31.483Z,6.83
2019-02-21T02:51:01.734Z,7.43
2019-02-21T02:53:31.965Z,6.42
2019-02-21T02:56:02.220Z,6.30
2019-02-21T02:58:32.455Z,6.78
2019-02-21T03:01:02.698Z,6.50
2019-02-21T03:03:32.937Z,7.60
2019-02-21T03:06:03.225Z,8.17
2019-02-21T03:08:33.434Z,8.23
2019-02-21T03:11:03.685Z,7.25
2019-02-21T03:13:33.924Z,7.27
2019-02-21T03:16:05.247Z,8.07
2019-02-21T03:18:35.484Z,7.10
2019-02-21T03:21:05.734Z,9.08
2019-02-21T03:23:35.976Z,7.40
2019-02-21T03:26:06.237Z,6.73
2019-02-21T03:28:36.462Z,6.80
2019-02-21T03:31:06.735Z,6.20
2019-02-21T03:33:38.024Z,6.57
2019-02-21T03:36:08.286Z,6.63
2019-02-21T03:38:38.548Z,6.43
2019-02-21T03:41:08.797Z,5.87
2019-02-21T03:43:39.020Z,6.83
2019-02-21T03:46:09.267Z,5.60
2019-02-21T03:48:39.502Z,5.40
2019-02-21T03:51:09.756Z,6.27
2019-02-21T03:53:39.995Z,5.73
2019-02-21T03:56:10.245Z,5.60
2019-02-21T03:58:40.493Z,4.83
2019-02-21T04:01:10.764Z,6.30
2019-02-21T04:03:41.009Z,5.80
2019-02-21T04:06:11.288Z,5.20
2019-02-21T04:08:41.520Z,5.47
2019-02-21T04:11:11.772Z,5.23
2019-02-21T04:13:42.010Z,5.40
2019-02-21T04:16:12.265Z,7.43
2019-02-21T04:18:42.499Z,8.10
2019-02-21T04:21:12.748Z,8.57
2019-02-21T04:23:43.362Z,9.33
2019-02-21T04:26:13.618Z,9.33
2019-02-21T04:28:45.841Z,9.27
2019-02-21T04:31:15.806Z,9.23
2019-02-21T04:33:46.043Z,7.30
2019-02-21T04:36:16.290Z,6.13
2019-02-21T04:38:46.522Z,6.90
2019-02-21T04:41:16.788Z,5.90
2019-02-21T04:43:47.022Z,6.13
2019-02-21T04:46:17.274Z,6.60
2019-02-21T04:48:47.505Z,5.70
2019-02-21T04:51:17.760Z,7.40
2019-02-21T04:53:47.995Z,7.00
2019-02-21T04:56:18.246Z,6.53
2019-02-21T04:58:48.483Z,7.47
2019-02-21T05:01:21.776Z,7.17
2019-02-21T05:03:52.015Z,7.47
2019-02-21T05:06:22.268Z,6.43
2019-02-21T05:08:52.495Z,6.37
2019-02-21T05:11:22.750Z,7.07
2019-02-21T05:13:52.988Z,7.90
2019-02-21T05:16:23.237Z,8.47
2019-02-21T05:18:53.474Z,9.67
2019-02-21T05:21:23.735Z,10.33
2019-02-21T05:23:53.974Z,9.33
2019-02-21T05:26:28.812Z,9.40
2019-02-21T05:29:00.617Z,10.43
2019-02-21T05:31:38.430Z,9.40
2019-02-21T05:34:10.309Z,10.70
2019-02-21T05:36:42.201Z,12.00
2019-02-21T05:39:14.099Z,12.23
2019-02-21T05:41:54.793Z,11.03
2019-02-21T05:44:43.194Z,9.10
2019-02-21T05:47:32.189Z,8.83
2019-02-21T05:50:19.083Z,7.77
2019-02-21T05:52:56.928Z,8.53
2019-02-21T05:55:44.973Z,9.60
2019-02-21T05:58:16.849Z,9.23
2019-02-21T06:00:51.431Z,10.17
2019-02-21T06:03:23.302Z,9.43
2019-02-21T06:05:55.204Z,9.00
2019-02-21T06:08:35.987Z,8.07
2019-02-21T06:11:13.848Z,9.47
2019-02-21T06:13:57.653Z,8.77
2019-02-21T06:16:33.039Z,9.40
2019-02-21T06:19:04.977Z,13.83
2019-02-21T06:21:53.320Z,7.73
2019-02-21T06:24:31.187Z,9.50
2019-02-21T06:27:12.456Z,8.80
2019-02-21T06:29:59.672Z,11.53
2019-02-21T06:32:29.927Z,12.83
2019-02-21T06:35:02.684Z,18.43
2019-02-21T06:37:32.124Z,16.23
2019-02-21T06:40:02.529Z,20.43
2019-02-21T06:42:32.785Z,19.60
2019-02-21T06:45:03.033Z,22.20
2019-02-21T06:47:33.273Z,22.43
2019-02-21T06:50:03.887Z,17.33
2019-02-21T06:52:34.139Z,18.50
2019-02-21T06:55:05.303Z,18.80
2019-02-21T06:57:35.557Z,18.83
2019-02-21T07:00:06.371Z,16.63
2019-02-21T07:02:36.884Z,12.50
2019-02-21T07:05:07.270Z,10.93
2019-02-21T07:07:37.532Z,10.57
2019-02-21T07:10:08.145Z,11.20
2019-02-21T07:12:38.403Z,11.73
2019-02-21T07:15:10.683Z,13.10
2019-02-21T07:17:48.792Z,14.23
2019-02-21T07:20:13.252Z,15.47
2019-02-21T07:22:43.509Z,17.97
2019-02-21T07:25:32.473Z,15.53
2019-02-21T07:28:11.295Z,15.87
2019-02-21T07:30:34.714Z,17.23
2019-02-21T07:33:04.975Z,18.50
2019-02-21T07:35:35.213Z,17.20
2019-02-21T07:38:05.475Z,17.03
2019-02-21T07:40:35.720Z,19.63
2019-02-21T07:43:06.100Z,22.53
2019-02-21T07:45:36.651Z,27.30
2019-02-21T07:48:07.171Z,22.93
2019-02-21T07:50:37.412Z,20.43
2019-02-21T07:53:07.672Z,22.23
2019-02-21T07:55:38.751Z,21.80
2019-02-21T07:58:09.005Z,18.40
2019-02-21T08:00:39.247Z,20.87
2019-02-21T08:03:09.519Z,23.00
2019-02-21T08:05:39.745Z,39.70
2019-02-21T08:08:10.008Z,17.95
2019-02-21T08:10:40.252Z,16.73
2019-02-21T08:13:10.525Z,16.03
2019-02-21T08:15:40.765Z,17.27
2019-02-21T08:18:11.013Z,16.73
2019-02-21T08:20:41.358Z,16.67
2019-02-21T08:23:11.577Z,22.45
2019-02-21T08:25:41.829Z,16.23
2019-02-21T08:28:12.236Z,25.40
2019-02-21T08:30:42.484Z,20.68
2019-02-21T08:33:26.119Z,25.45
2019-02-21T08:35:57.925Z,27.57
2019-02-21T08:38:32.856Z,23.60
2019-02-21T08:41:03.350Z,22.90
2019-02-21T08:43:40.639Z,23.57
2019-02-21T08:46:12.026Z,22.62
2019-02-21T08:48:44.153Z,21.80
2019-02-21T08:51:18.360Z,22.87
2019-02-21T08:53:58.062Z,24.50
2019-02-21T08:56:30.221Z,23.25
2019-02-21T08:59:00.496Z,19.57
2019-02-21T09:01:30.753Z,20.23
2019-02-21T09:04:09.824Z,21.85
2019-02-21T09:06:32.940Z,32.10
2019-02-21T09:09:04.445Z,24.25
2019-02-21T09:11:39.976Z,21.25
2019-02-21T09:14:12.538Z,22.70
2019-02-21T09:17:01.219Z,22.50
2019-02-21T09:19:31.687Z,19.02
2019-02-21T09:22:03.754Z,20.68
2019-02-21T09:24:41.291Z,21.43
2019-02-21T09:27:10.650Z,21.37
2019-02-21T09:29:42.105Z,20.37
2019-02-21T09:32:21.440Z,16.13
2019-02-21T09:34:54.830Z,19.35
2019-02-21T09:37:28.803Z,17.90
2019-02-21T09:40:02.944Z,22.40
2019-02-21T09:42:33.373Z,18.57
2019-02-21T09:45:05.044Z,23.30
2019-02-21T09:47:35.283Z,22.20
2019-02-21T09:50:07.376Z,20.00
2019-02-21T09:52:37.616Z,19.77
2019-02-21T09:55:10.499Z,22.35
2019-02-21T09:57:41.917Z,19.98
2019-02-21T10:00:15.570Z,22.23
2019-02-21T10:02:48.147Z,19.23
2019-02-21T10:05:20.941Z,17.67
2019-02-21T10:07:51.371Z,20.73
2019-02-21T10:10:22.974Z,23.87
2019-02-21T10:12:53.646Z,21.70
2019-02-21T10:15:24.009Z,18.45
2019-02-21T10:17:54.394Z,17.48
2019-02-21T10:20:24.942Z,19.65
2019-02-21T10:22:55.185Z,18.55
2019-02-21T10:25:30.136Z,17.92
2019-02-21T10:28:00.669Z,19.12
2019-02-21T10:30:32.718Z,20.32
2019-02-21T10:33:02.965Z,18.70
2019-02-21T10:35:34.899Z,17.73
2019-02-21T10:38:08.188Z,18.12
2019-02-21T10:40:38.444Z,18.17
2019-02-21T10:43:10.946Z,18.77
2019-02-21T10:45:49.160Z,17.62
2019-02-21T10:48:22.273Z,19.15
2019-02-21T10:50:53.734Z,18.17
2019-02-21T10:53:27.742Z,18.52
2019-02-21T10:56:01.428Z,19.15
2019-02-21T10:58:33.910Z,18.57
2019-02-21T11:01:04.179Z,20.08
2019-02-21T11:03:40.188Z,19.17
2019-02-21T11:06:14.622Z,17.82
2019-02-21T11:08:44.941Z,20.08
2019-02-21T11:11:17.287Z,18.90
2019-02-21T11:13:49.399Z,19.73
2019-02-21T11:16:21.672Z,18.48
2019-02-21T11:18:51.982Z,18.27
2019-02-21T11:21:22.522Z,18.77
2019-02-21T11:23:52.775Z,20.20
2019-02-21T11:26:23.042Z,17.20
2019-02-21T11:28:53.361Z,23.45
2019-02-21T11:31:27.894Z,21.05
2019-02-21T11:33:59.080Z,19.15
2019-02-21T11:36:30.905Z,19.10
2019-02-21T11:39:01.149Z,19.20
2019-02-21T11:41:35.379Z,21.25
2019-02-21T11:44:07.414Z,21.45
2019-02-21T11:46:38.423Z,20.60
2019-02-21T11:49:08.851Z,18.98
2019-02-21T11:51:40.970Z,18.92
2019-02-21T11:54:15.955Z,21.50
2019-02-21T11:56:52.997Z,19.80
2019-02-21T11:59:24.156Z,20.30
2019-02-21T12:01:55.315Z,22.02
2019-02-21T12:04:25.598Z,24.07
2019-02-21T12:06:55.848Z,28.10
2019-02-21T12:09:26.174Z,22.82
2019-02-21T12:11:58.011Z,24.92
2019-02-21T12:14:28.275Z,24.47
2019-02-21T12:17:01.360Z,22.20
2019-02-21T12:19:31.611Z,11.33
2019-02-21T12:22:01.936Z,22.13
2019-02-21T12:24:32.185Z,20.27
2019-02-21T12:27:02.433Z,21.73
2019-02-21T12:29:36.146Z,18.98
2019-02-21T12:32:06.397Z,19.30
2019-02-21T12:34:37.985Z,19.37
2019-02-21T12:37:08.902Z,21.30
2019-02-21T12:39:39.150Z,19.10
2019-02-21T12:42:09.789Z,21.68
2019-02-21T12:44:40.074Z,22.00
2019-02-21T12:47:10.316Z,20.92
2019-02-21T12:49:40.573Z,20.40
2019-02-21T12:52:10.813Z,19.32
2019-02-21T12:54:41.085Z,19.00
2019-02-21T12:57:13.162Z,22.27
2019-02-21T12:59:43.386Z,16.30
2019-02-21T13:02:13.790Z,19.75
2019-02-21T13:04:44.049Z,19.17
2019-02-21T13:07:15.291Z,18.90
2019-02-21T13:09:46.618Z,18.62
2019-02-21T13:12:17.211Z,20.43
2019-02-21T13:14:47.453Z,18.10
2019-02-21T13:17:26.214Z,20.65
2019-02-21T13:19:56.444Z,18.30
2019-02-21T13:22:26.748Z,20.23
2019-02-21T13:24:57.181Z,18.25
2019-02-21T13:27:27.586Z,17.20
2019-02-21T13:29:58.175Z,16.95
2019-02-21T13:32:28.501Z,18.03
2019-02-21T13:35:00.441Z,18.40
2019-02-21T13:37:30.745Z,16.80
2019-02-21T13:40:02.197Z,17.87
2019-02-21T13:42:37.746Z,19.00
2019-02-21T13:45:09.837Z,18.23
2019-02-21T13:47:40.526Z,16.23
2019-02-21T13:50:18.601Z,16.55
2019-02-21T13:52:51.578Z,17.37
2019-02-21T13:55:25.348Z,18.75
2019-02-21T13:57:55.616Z,19.15
2019-02-21T14:00:25.852Z,14.85
2019-02-21T14:02:56.125Z,16.57
2019-02-21T14:05:27.374Z,18.60
2019-02-21T14:07:59.487Z,18.42
2019-02-21T14:10:29.783Z,19.50
2019-02-21T14:13:01.113Z,20.77
2019-02-21T14:15:33.058Z,18.13
2019-02-21T14:18:03.470Z,18.10
2019-02-21T14:20:44.590Z,20.30
2019-02-21T14:23:06.115Z,23.30
2019-02-21T14:25:40.664Z,19.65
2019-02-21T14:28:09.892Z,25.48
2019-02-21T14:30:43.180Z,24.80
2019-02-21T14:33:17.526Z,21.17
2019-02-21T14:35:47.897Z,18.70
2019-02-21T14:38:27.494Z,22.37
2019-02-21T14:40:51.698Z,26.80
2019-02-21T14:43:21.996Z,20.10
2019-02-21T14:45:52.302Z,16.87
2019-02-21T14:48:26.624Z,17.35
2019-02-21T14:50:59.425Z,18.35
2019-02-21T14:53:30.570Z,22.95
2019-02-21T14:56:03.236Z,21.52
2019-02-21T14:58:34.403Z,23.77
2019-02-21T15:01:05.044Z,24.93
2019-02-21T15:03:35.303Z,27.23
2019-02-21T15:06:08.291Z,28.30
2019-02-21T15:08:38.562Z,24.25
2019-02-21T15:11:08.880Z,24.67
2019-02-21T15:13:40.620Z,23.87
2019-02-21T15:16:10.876Z,24.37
2019-02-21T15:18:42.508Z,24.63
2019-02-21T15:21:12.741Z,22.00
2019-02-21T15:23:43.015Z,20.83
2019-02-21T15:26:13.278Z,19.32
2019-02-21T15:28:44.740Z,19.62
2019-02-21T15:31:14.997Z,23.75
2019-02-21T15:33:46.728Z,22.58
2019-02-21T15:36:17.063Z,21.10
2019-02-21T15:38:47.328Z,20.55
2019-02-21T15:41:17.708Z,23.40
2019-02-21T15:43:49.157Z,22.33
2019-02-21T15:46:19.412Z,18.23
2019-02-21T15:48:49.701Z,20.30
2019-02-21T15:51:19.959Z,22.13
2019-02-21T15:53:50.807Z,19.10
2019-02-21T15:56:21.338Z,20.60
2019-02-21T15:58:53.326Z,22.22
2019-02-21T16:01:25.008Z,22.32
2019-02-21T16:03:55.514Z,22.73
2019-02-21T16:06:25.769Z,20.50
2019-02-21T16:08:58.388Z,20.57
2019-02-21T16:11:29.998Z,23.38
2019-02-21T16:14:03.440Z,22.17
2019-02-21T16:16:32.480Z,30.57
2019-02-21T16:19:04.026Z,28.57
2019-02-21T16:21:34.561Z,24.72
2019-02-21T16:24:04.820Z,24.52
2019-02-21T16:26:35.213Z,26.63
2019-02-21T16:29:06.862Z,23.43
2019-02-21T16:31:37.173Z,24.77
2019-02-21T16:34:09.317Z,22.80
2019-02-21T16:36:39.372Z,16.57
2019-02-21T16:39:11.093Z,25.55
2019-02-21T16:41:41.663Z,25.40
2019-02-21T16:44:15.092Z,22.00
2019-02-21T16:46:46.529Z,24.70
2019-02-21T16:49:16.755Z,19.92
2019-02-21T16:51:47.301Z,23.40
2019-02-21T16:54:18.552Z,23.42
2019-02-21T16:56:49.148Z,25.13
2019-02-21T16:59:20.521Z,22.00
2019-02-21T17:01:50.954Z,22.80
2019-02-21T17:04:22.380Z,22.20
2019-02-21T17:06:52.657Z,22.77
2019-02-21T17:09:23.475Z,22.07
2019-02-21T17:11:55.667Z,21.27
2019-02-21T17:14:26.947Z,31.10
2019-02-21T17:16:59.949Z,28.42
2019-02-21T17:19:31.381Z,24.10
2019-02-21T17:22:01.647Z,22.30
2019-02-21T17:24:33.406Z,23.90
2019-02-21T17:27:06.186Z,21.77
2019-02-21T17:29:38.688Z,25.07
2019-02-21T17:32:12.249Z,21.50
2019-02-21T17:34:42.784Z,26.15
2019-02-21T17:37:24.439Z,22.82
2019-02-21T17:39:50.219Z,25.57
2019-02-21T17:42:20.700Z,20.23
2019-02-21T17:44:54.646Z,23.70
2019-02-21T17:47:32.705Z,22.63
2019-02-21T17:50:03.375Z,22.37
2019-02-21T17:52:36.778Z,25.00
2019-02-21T17:55:10.287Z,21.93
2019-02-21T17:57:40.887Z,20.70
2019-02-21T18:00:22.773Z,22.52
2019-02-21T18:02:55.418Z,21.80
2019-02-21T18:05:26.033Z,29.00
2019-02-21T18:08:00.097Z,25.53
2019-02-21T18:10:30.405Z,24.10
2019-02-21T18:13:01.051Z,22.17
2019-02-21T18:15:34.205Z,23.47
2019-02-21T18:18:07.872Z,24.25
2019-02-21T18:20:39.770Z,21.45
2019-02-21T18:23:12.430Z,24.07
2019-02-21T18:25:50.194Z,22.98
2019-02-21T18:28:22.443Z,24.33
2019-02-21T18:30:54.945Z,22.03
2019-02-21T18:33:25.587Z,23.57
2019-02-21T18:35:57.644Z,21.83
2019-02-21T18:38:29.095Z,23.27
2019-02-21T18:41:00.554Z,23.25
2019-02-21T18:43:30.877Z,25.17
2019-02-21T18:46:01.306Z,26.77
2019-02-21T18:48:31.841Z,16.03
2019-02-21T18:51:02.152Z,11.33
2019-02-21T18:53:35.422Z,21.33
2019-02-21T18:56:05.882Z,19.63
2019-02-21T18:58:37.354Z,21.30
2019-02-21T19:01:08.476Z,21.47
2019-02-21T19:03:38.780Z,22.73
2019-02-21T19:06:09.213Z,20.20
2019-02-21T19:08:41.343Z,26.97
2019-02-21T19:11:11.689Z,15.73
2019-02-21T19:13:42.097Z,23.47
2019-02-21T19:16:12.413Z,24.03
2019-02-21T19:18:43.709Z,22.23
2019-02-21T19:21:15.385Z,26.67
2019-02-21T19:23:45.684Z,19.90
2019-02-21T19:26:16.099Z,20.70
2019-02-21T19:28:46.462Z,24.93
2019-02-21T19:31:16.760Z,25.05
2019-02-21T19:33:47.196Z,21.03
2019-02-21T19:36:18.781Z,19.43
2019-02-21T19:38:49.221Z,16.13
2019-02-21T19:41:19.935Z,17.10
2019-02-21T19:43:51.956Z,15.80
2019-02-21T19:46:24.634Z,18.20
2019-02-21T19:48:56.554Z,21.27
2019-02-21T19:51:26.903Z,20.33
2019-02-21T19:53:57.376Z,22.43
2019-02-21T19:56:30.595Z,21.20
2019-02-21T19:59:01.157Z,18.93
2019-02-21T20:01:32.234Z,21.30
2019-02-21T20:04:04.844Z,16.87
2019-02-21T20:06:35.159Z,21.10
2019-02-21T20:09:05.551Z,26.03
2019-02-21T20:11:39.152Z,30.87
2019-02-21T20:14:09.541Z,22.43
2019-02-21T20:16:39.821Z,23.63
2019-02-21T20:19:10.333Z,20.57
2019-02-21T20:21:40.789Z,13.67
2019-02-21T20:24:11.362Z,17.30
2019-02-21T20:26:41.917Z,24.03
2019-02-21T20:29:15.535Z,25.60
2019-02-21T20:31:48.117Z,27.33
2019-02-21T20:34:22.486Z,23.03
2019-02-21T20:36:55.319Z,30.93
2019-02-21T20:39:29.491Z,32.35
2019-02-21T20:42:02.578Z,38.37
2019-02-21T20:44:34.147Z,30.40
2019-02-21T20:47:04.500Z,21.97
2019-02-21T20:49:42.030Z,21.23
2019-02-21T20:52:13.161Z,23.98
2019-02-21T20:54:54.902Z,21.33
2019-02-21T20:57:25.652Z,17.80
2019-02-21T21:00:00.834Z,21.35
2019-02-21T21:02:39.357Z,20.63
2019-02-21T21:05:10.023Z,16.03
2019-02-21T21:07:43.605Z,16.48
2019-02-21T21:10:16.001Z,19.30
2019-02-21T21:12:48.057Z,17.05
2019-02-21T21:15:19.608Z,20.20
2019-02-21T21:17:49.939Z,16.70
2019-02-21T21:20:21.354Z,19.42
2019-02-21T21:22:59.238Z,17.52
2019-02-21T21:25:39.887Z,17.82
2019-02-21T21:28:17.769Z,16.97
2019-02-21T21:30:48.069Z,18.02
2019-02-21T21:33:19.780Z,17.80
2019-02-21T21:35:53.060Z,14.70
2019-02-21T21:38:28.605Z,16.87
2019-02-21T21:40:59.589Z,15.25
2019-02-21T21:43:29.947Z,16.95
2019-02-21T21:46:04.450Z,16.65
2019-02-21T21:48:34.736Z,16.93
2019-02-21T21:51:05.950Z,16.25
2019-02-21T21:53:36.715Z,16.52
2019-02-21T21:56:10.219Z,15.53
2019-02-21T21:58:42.633Z,14.35
2019-02-21T22:01:14.957Z,13.58
2019-02-21T22:03:51.237Z,13.98
2019-02-21T22:06:21.572Z,13.08
2019-02-21T22:09:04.450Z,13.98
2019-02-21T22:11:26.918Z,13.05
2019-02-21T22:13:57.177Z,11.78
2019-02-21T22:16:29.591Z,14.98
2019-02-21T22:19:00.283Z,13.70
2019-02-21T22:21:30.615Z,14.07
2019-02-21T22:24:01.143Z,12.75
2019-02-21T22:26:31.639Z,13.72
2019-02-21T22:29:03.266Z,14.68
2019-02-21T22:31:33.776Z,11.60
2019-02-21T22:34:04.229Z,10.80
2019-02-21T22:36:34.830Z,12.30
2019-02-21T22:39:15.903Z,12.28
2019-02-21T22:41:41.255Z,12.68
2019-02-21T22:44:12.739Z,11.80
2019-02-21T22:46:44.137Z,11.90
2019-02-21T22:49:17.176Z,13.38
2019-02-21T22:51:50.733Z,13.10
2019-02-21T22:54:22.180Z,12.50
2019-02-21T22:56:53.687Z,12.63
2019-02-21T22:59:25.097Z,11.65
2019-02-21T23:01:58.496Z,12.95
2019-02-21T23:04:32.099Z,11.05
2019-02-21T23:07:11.636Z,15.08
2019-02-21T23:09:41.947Z,13.22
2019-02-21T23:12:13.399Z,12.25
2019-02-21T23:14:45.774Z,11.97
2019-02-21T23:17:16.610Z,12.33
2019-02-21T23:19:48.055Z,12.35
2019-02-21T23:22:18.328Z,10.58
2019-02-21T23:24:48.568Z,10.80
2019-02-21T23:27:18.866Z,10.93
2019-02-21T23:29:50.287Z,9.78
2019-02-21T23:32:20.529Z,9.40
2019-02-21T23:34:51.643Z,8.23
2019-02-21T23:37:21.882Z,8.78
2019-02-21T23:39:52.118Z,8.88
2019-02-21T23:42:22.362Z,9.73
2019-02-21T23:44:52.599Z,8.55
2019-02-21T23:47:22.842Z,7.70
2019-02-21T23:49:53.082Z,8.53
2019-02-21T23:52:23.398Z,7.55
2019-02-21T23:54:53.634Z,7.45
2019-02-21T23:57:23.887Z,6.90
2019-02-21T23:59:54.122Z,7.50
